Time;durP1;ratioP1;P1;durP2;ratioP2;P2;SDS_P1;SDS_P2;PMS_P1;PMS_P2;Temp;Humidity;BMP_temperature;BMP_pressure;BME280_temperature;BME280_humidity;BME280_pressure;Samples;Min_cycle;Max_cycle;Signal;HPM_P1;HPM_P2
2022/11/23 00:01:40;;;;;;;99.82;43.65;;;;;;;1.24;100.00;98222.47;8430671;28;20044;-77
2022/11/23 00:05:41;;;;;;;96.95;42.22;;;;;;;1.23;100.00;98224.31;8357529;28;20040;-77
2022/11/23 00:09:42;;;;;;;103.65;43.53;;;;;;;1.20;100.00;98230.19;8298411;28;20045;-76
2022/11/23 00:13:44;;;;;;;100.68;44.25;;;;;;;1.19;100.00;98223.28;8359548;28;20049;-77
2022/11/23 00:17:47;;;;;;;104.05;43.03;;;;;;;1.13;100.00;98224.34;8359104;28;20384;-77
2022/11/23 00:21:48;;;;;;;104.57;44.03;;;;;;;1.09;100.00;98228.63;8359704;28;20045;-76
2022/11/23 00:25:49;;;;;;;108.68;46.45;;;;;;;1.07;100.00;98224.63;8355587;28;20060;-76
2022/11/23 00:29:50;;;;;;;108.82;46.72;;;;;;;1.06;100.00;98229.13;8325102;28;20053;-76
2022/11/23 00:33:52;;;;;;;107.28;45.65;;;;;;;1.08;100.00;98221.69;8358229;28;20057;-77
2022/11/23 00:37:53;;;;;;;105.95;44.22;;;;;;;1.08;100.00;98221.69;8429761;28;20422;-76
2022/11/23 00:41:54;;;;;;;109.20;46.15;;;;;;;1.10;100.00;98224.91;8427232;28;20056;-76
2022/11/23 00:46:13;;;;;;;115.28;46.15;;;;;;;1.13;100.00;98235.00;8429294;28;20565;-77
2022/11/23 00:50:14;;;;;;;106.95;45.45;;;;;;;1.18;100.00;98236.84;8428675;28;20048;-76
2022/11/23 00:54:15;;;;;;;104.45;46.10;;;;;;;1.24;100.00;98235.75;8428924;28;20096;-77
2022/11/23 00:58:16;;;;;;;101.95;45.08;;;;;;;1.27;100.00;98241.34;8428168;28;20048;-77
2022/11/23 01:02:17;;;;;;;109.90;45.42;;;;;;;1.34;100.00;98235.75;8427620;28;21391;-76
2022/11/23 01:06:24;;;;;;;110.68;45.80;;;;;;;1.39;100.00;98234.94;8427943;28;20093;-76
2022/11/23 01:10:25;;;;;;;109.03;46.10;;;;;;;1.42;100.00;98221.09;8426583;28;20460;-77
2022/11/23 01:14:26;;;;;;;107.47;45.05;;;;;;;1.47;100.00;98223.75;8427874;28;20453;-76
2022/11/23 01:18:27;;;;;;;109.07;44.03;;;;;;;1.51;100.00;98230.91;8365573;28;20055;-76
2022/11/23 01:22:28;;;;;;;105.30;44.70;;;;;;;1.54;100.00;98232.22;8388736;28;20044;-76
2022/11/23 01:26:29;;;;;;;114.05;48.10;;;;;;;1.60;100.00;98228.47;8427892;28;20058;-76
2022/11/23 01:30:30;;;;;;;110.38;47.05;;;;;;;1.64;100.00;98235.66;8416621;28;20461;-77
2022/11/23 01:34:31;;;;;;;114.55;47.22;;;;;;;1.69;100.00;98226.88;8401891;28;20040;-76
2022/11/23 01:38:31;;;;;;;107.63;45.30;;;;;;;1.74;100.00;98234.84;8415319;28;20040;-77
2022/11/23 01:43:00;;;;;;;112.00;45.50;;;;;;;1.74;100.00;98232.19;8416707;28;20421;-76
2022/11/23 01:47:04;;;;;;;116.32;47.67;;;;;;;1.75;100.00;98232.94;8411368;28;20048;-77
2022/11/23 01:51:10;;;;;;;123.32;50.08;;;;;;;1.75;100.00;98230.28;8379213;28;20040;-76
2022/11/23 01:55:11;;;;;;;110.68;48.00;;;;;;;1.77;100.00;98234.28;8385758;28;20056;-76
2022/11/23 01:59:15;;;;;;;110.78;49.50;;;;;;;1.75;100.00;98236.41;8415192;28;20060;-76
2022/11/23 02:03:17;;;;;;;121.68;51.13;;;;;;;1.78;100.00;98240.41;8413413;28;20551;-76
2022/11/23 02:07:18;;;;;;;113.43;49.00;;;;;;;1.78;100.00;98241.19;8406993;28;20040;-77
2022/11/23 02:11:19;;;;;;;118.97;50.65;;;;;;;1.79;100.00;98242.78;8396120;28;20893;-76
2022/11/23 02:15:20;;;;;;;104.50;44.67;;;;;;;1.81;100.00;98243.31;8414192;28;20040;-76
2022/11/23 02:19:54;;;;;;;112.82;46.50;;;;;;;1.84;100.00;98245.44;8356464;28;20047;-76
2022/11/23 02:24:14;;;;;;;110.95;44.45;;;;;;;1.84;100.00;98245.44;8411459;28;20047;-76
2022/11/23 02:28:22;;;;;;;115.28;46.55;;;;;;;1.85;100.00;98247.00;8411101;28;20052;-77
2022/11/23 02:32:23;;;;;;;109.82;46.08;;;;;;;1.83;100.00;98254.50;8392952;28;20055;-76
2022/11/23 02:36:33;;;;;;;122.50;46.72;;;;;;;1.87;100.00;98244.88;8398194;28;20075;-76
2022/11/23 02:40:35;;;;;;;111.60;47.17;;;;;;;1.86;100.00;98237.97;8398993;28;20048;-76
2022/11/23 02:44:49;;;;;;;111.03;46.25;;;;;;;1.81;100.00;98245.97;8410845;28;20044;-76
2022/11/23 02:48:50;;;;;;;104.43;45.17;;;;;;;1.85;100.00;98241.69;8409059;28;20036;-77
2022/11/23 02:52:51;;;;;;;112.85;47.80;;;;;;;1.84;100.00;98245.44;8414500;28;20397;-77
2022/11/23 02:56:52;;;;;;;112.18;46.47;;;;;;;1.82;100.00;98247.56;8408937;28;20063;-76
2022/11/23 03:00:53;;;;;;;113.03;46.80;;;;;;;1.78;100.00;98251.06;8413357;28;20537;-77
2022/11/23 03:04:54;;;;;;;102.88;46.05;;;;;;;1.78;100.00;98257.16;8343025;28;20048;-76
2022/11/23 03:08:56;;;;;;;105.00;46.65;;;;;;;1.78;100.00;98251.84;8339331;28;20087;-76
2022/11/23 03:12:57;;;;;;;109.88;47.00;;;;;;;1.78;100.00;98251.06;8343015;28;20060;-76
2022/11/23 03:16:59;;;;;;;116.88;48.92;;;;;;;1.77;100.00;98250.25;8349977;28;20044;-77
2022/11/23 03:21:04;;;;;;;110.15;49.15;;;;;;;1.75;100.00;98251.56;8335163;28;20041;-77
2022/11/23 03:25:05;;;;;;;108.65;47.08;;;;;;;1.71;100.00;98235.38;8347421;28;20442;-77
2022/11/23 03:29:06;;;;;;;109.55;47.47;;;;;;;1.73;100.00;98243.88;8340482;28;20522;-77
2022/11/23 03:33:07;;;;;;;115.78;48.33;;;;;;;1.72;100.00;98242.28;8349310;28;20037;-77
2022/11/23 03:37:08;;;;;;;110.20;49.45;;;;;;;1.73;100.00;98233.22;8415388;28;20505;-76
2022/11/23 03:41:09;;;;;;;115.55;49.67;;;;;;;1.74;100.00;98240.16;8388939;28;20059;-76
2022/11/23 03:45:10;;;;;;;118.22;48.63;;;;;;;1.73;100.00;98237.75;8422496;28;20040;-76
2022/11/23 03:49:11;;;;;;;123.75;52.33;;;;;;;1.76;100.00;98243.31;8364817;28;20050;-77
2022/11/23 03:53:12;;;;;;;113.85;50.67;;;;;;;1.74;100.00;98234.03;8416108;28;20687;-77
2022/11/23 03:57:13;;;;;;;117.18;50.03;;;;;;;1.73;100.00;98227.91;8419373;28;20059;-77
2022/11/23 04:01:14;;;;;;;108.95;48.05;;;;;;;1.72;100.00;98231.63;8365880;28;20048;-77
2022/11/23 04:05:15;;;;;;;114.15;49.80;;;;;;;1.74;100.00;98234.84;8414395;28;20131;-76
2022/11/23 04:09:16;;;;;;;110.32;49.00;;;;;;;1.73;100.00;98233.22;8415036;28;20149;-77
2022/11/23 04:13:17;;;;;;;116.22;49.35;;;;;;;1.73;100.00;98238.56;8419793;28;20048;-77
2022/11/23 04:17:18;;;;;;;114.30;48.08;;;;;;;1.72;100.00;98234.31;8350494;28;20048;-76
2022/11/23 04:21:19;;;;;;;102.13;45.47;;;;;;;1.74;100.00;98245.47;8416384;28;20047;-77
2022/11/23 04:25:20;;;;;;;121.05;49.85;;;;;;;1.75;100.00;98236.41;8420826;28;20051;-76
2022/11/23 04:29:21;;;;;;;105.40;47.67;;;;;;;1.76;100.00;98231.88;8410871;28;20040;-76
2022/11/23 04:33:22;;;;;;;119.63;48.25;;;;;;;1.77;100.00;98234.28;8404119;28;20044;-76
2022/11/23 04:37:23;;;;;;;118.20;50.65;;;;;;;1.77;100.00;98239.59;8405608;28;20059;-76
2022/11/23 04:41:24;;;;;;;113.35;48.85;;;;;;;1.78;100.00;98235.88;8420680;28;20332;-76
2022/11/23 04:45:25;;;;;;;121.97;51.53;;;;;;;1.78;100.00;98235.88;8374346;28;20309;-75
2022/11/23 04:49:26;;;;;;;113.75;47.47;;;;;;;1.80;100.00;98233.72;8366183;28;20075;-76
2022/11/23 04:53:27;;;;;;;115.15;49.35;;;;;;;1.84;100.00;98234.78;8411958;28;20052;-76
2022/11/23 04:57:28;;;;;;;116.90;51.08;;;;;;;1.85;100.00;98241.69;8428571;28;20112;-76
2022/11/23 05:01:29;;;;;;;116.68;49.03;;;;;;;1.86;100.00;98243.28;8430452;28;20060;-76
2022/11/23 05:05:30;;;;;;;122.43;50.33;;;;;;;1.86;100.00;98248.59;8430409;28;20056;-76
2022/11/23 05:09:31;;;;;;;127.15;50.17;;;;;;;1.82;100.00;98242.25;8430320;28;20094;-76
2022/11/23 05:13:32;;;;;;;123.05;49.75;;;;;;;1.80;100.00;98255.03;8426505;28;20070;-77
2022/11/23 05:17:33;;;;;;;118.57;49.35;;;;;;;1.78;100.00;98241.19;8414354;28;20143;-76
2022/11/23 05:21:34;;;;;;;116.43;48.97;;;;;;;1.80;100.00;98239.03;8428368;28;20551;-76
2022/11/23 05:25:35;;;;;;;117.18;49.85;;;;;;;1.80;100.00;98239.03;8376157;28;20127;-76
2022/11/23 05:29:36;;;;;;;113.22;48.05;;;;;;;1.80;100.00;98244.38;8427356;28;20051;-77
2022/11/23 05:33:37;;;;;;;119.82;49.50;;;;;;;1.80;100.00;98244.38;8428963;28;20055;-76
2022/11/23 05:37:38;;;;;;;116.75;51.20;;;;;;;1.80;100.00;98248.91;8427740;28;20051;-76
2022/11/23 05:41:39;;;;;;;121.15;50.20;;;;;;;1.80;100.00;98248.91;8392415;28;20568;-76
2022/11/23 05:45:41;;;;;;;117.28;51.42;;;;;;;1.80;100.00;98244.38;8375778;28;20077;-76
2022/11/23 05:49:42;;;;;;;109.28;47.47;;;;;;;1.78;100.00;98251.84;8428202;28;20097;-77
2022/11/23 05:53:43;;;;;;;121.13;48.83;;;;;;;1.72;100.00;98246.81;8375361;28;20048;-77
2022/11/23 05:57:44;;;;;;;129.00;51.30;;;;;;;1.75;100.00;98247.06;8428243;28;20052;-76
2022/11/23 06:01:45;;;;;;;112.45;48.47;;;;;;;1.78;100.00;98246.53;8427674;28;20127;-77
2022/11/23 06:05:46;;;;;;;109.85;49.10;;;;;;;1.82;100.00;98258.22;8391613;28;20100;-76
2022/11/23 06:09:47;;;;;;;108.05;49.28;;;;;;;1.82;100.00;98257.41;8427246;28;20036;-76
2022/11/23 06:13:48;;;;;;;112.50;47.88;;;;;;;1.85;100.00;98257.66;8427742;28;20043;-76
2022/11/23 06:17:49;;;;;;;164.00;68.38;;;;;;;1.87;100.00;98260.06;8427785;28;20119;-75
2022/11/23 06:21:50;;;;;;;135.25;57.45;;;;;;;1.79;100.00;98274.75;8427109;28;20040;-77
2022/11/23 06:25:51;;;;;;;172.23;76.30;;;;;;;1.83;100.00;98270.47;8427169;28;20066;-76
2022/11/23 06:29:52;;;;;;;144.07;60.80;;;;;;;1.80;100.00;98276.31;8427256;28;20510;-76
2022/11/23 06:33:53;;;;;;;121.68;52.97;;;;;;;1.79;100.00;98285.38;8427189;28;20109;-76
2022/11/23 06:37:54;;;;;;;114.75;48.80;;;;;;;1.85;100.00;98278.97;8427201;28;20048;-76
2022/11/23 06:41:55;;;;;;;126.50;50.72;;;;;;;1.84;100.00;98288.03;8390840;28;20532;-76
2022/11/23 06:45:56;;;;;;;118.30;50.22;;;;;;;1.84;100.00;98293.38;8427001;28;20595;-76
2022/11/23 06:49:57;;;;;;;134.23;49.42;;;;;;;1.86;100.00;98285.09;8432095;28;20134;-76
2022/11/23 06:53:58;;;;;;;117.07;47.25;;;;;;;1.85;100.00;98284.28;8438262;28;20328;-76
2022/11/23 06:57:59;;;;;;;119.60;50.58;;;;;;;1.80;100.00;98302.94;8401654;28;20076;-77
2022/11/23 07:02:00;;;;;;;119.78;47.83;;;;;;;1.79;100.00;98301.38;8400099;28;20063;-76
2022/11/23 07:06:05;;;;;;;110.18;45.95;;;;;;;1.83;100.00;98314.91;8437113;28;20068;-76
2022/11/23 07:10:07;;;;;;;120.35;46.42;;;;;;;1.80;100.00;98313.59;8437818;28;20413;-76
2022/11/23 07:14:08;;;;;;;116.50;45.70;;;;;;;1.83;100.00;98323.72;8437194;28;20050;-76
2022/11/23 07:18:11;;;;;;;114.32;46.08;;;;;;;1.88;100.00;98321.03;8432557;28;20044;-77
2022/11/23 07:22:11;;;;;;;110.95;45.80;;;;;;;1.84;100.00;98322.66;8401269;28;20047;-76
2022/11/23 07:26:12;;;;;;;114.60;46.05;;;;;;;1.85;100.00;98332.19;8437457;28;20474;-76
2022/11/23 07:30:14;;;;;;;103.72;44.67;;;;;;;1.88;100.00;98326.34;8432469;28;20044;-76
2022/11/23 07:34:15;;;;;;;116.45;46.20;;;;;;;1.94;100.00;98335.94;8428942;28;20047;-76
2022/11/23 07:38:16;;;;;;;111.55;45.95;;;;;;;1.89;100.00;98333.28;8437019;28;20044;-77
2022/11/23 07:42:19;;;;;;;104.82;43.78;;;;;;;1.93;100.00;98339.66;8370236;28;20392;-76
2022/11/23 07:46:20;;;;;;;108.68;46.08;;;;;;;1.99;100.00;98333.25;8370179;28;20041;-76
2022/11/23 07:50:21;;;;;;;116.50;44.60;;;;;;;1.97;100.00;98345.22;8369954;28;20052;-77
2022/11/23 07:54:22;;;;;;;120.57;46.88;;;;;;;1.95;100.00;98348.19;8370457;28;20408;-76
2022/11/23 07:58:24;;;;;;;114.13;44.72;;;;;;;2.02;100.00;98354.00;8369836;28;20037;-76
2022/11/23 08:02:25;;;;;;;103.30;43.28;;;;;;;2.06;100.00;98363.03;8365118;28;20036;-76
2022/11/23 08:06:26;;;;;;;106.95;45.08;;;;;;;2.07;100.00;98361.97;8364765;28;20051;-76
2022/11/23 08:10:28;;;;;;;109.38;43.47;;;;;;;2.13;100.00;98366.22;8365007;28;20045;-76
2022/11/23 08:14:29;;;;;;;112.60;44.25;;;;;;;2.16;100.00;98374.75;8364582;28;20136;-76
2022/11/23 08:18:30;;;;;;;117.82;46.38;;;;;;;2.17;100.00;98368.34;8364465;28;20072;-76
2022/11/23 08:22:31;;;;;;;131.35;48.75;;;;;;;2.27;100.00;98366.44;8364340;28;20068;-76
2022/11/23 08:26:33;;;;;;;147.50;48.85;;;;;;;2.32;100.00;98368.28;8364603;28;20127;-76
2022/11/23 08:30:34;;;;;;;132.95;49.00;;;;;;;2.37;100.00;98365.59;8363797;28;20131;-76
2022/11/23 08:34:35;;;;;;;119.80;48.92;;;;;;;2.45;100.00;98355.16;8355703;28;20068;-76
2022/11/23 08:38:36;;;;;;;135.80;52.50;;;;;;;2.51;100.00;98351.41;8364719;28;20060;-76
2022/11/23 08:42:37;;;;;;;117.95;46.47;;;;;;;2.60;100.00;98361.47;8387540;28;20048;-76
2022/11/23 08:46:38;;;;;;;128.95;50.70;;;;;;;2.67;100.00;98362.78;8429676;28;20135;-76
2022/11/23 08:50:39;;;;;;;134.35;50.30;;;;;;;2.73;100.00;98364.34;8429893;28;20044;-76
2022/11/23 08:54:40;;;;;;;119.45;50.05;;;;;;;2.66;99.74;98347.84;8377385;28;20076;-76
2022/11/23 08:58:41;;;;;;;117.93;49.45;;;;;;;2.67;99.84;98354.78;8416432;28;20052;-76
2022/11/23 09:02:42;;;;;;;110.95;45.30;;;;;;;2.71;99.79;98345.16;8429455;28;20048;-76
2022/11/23 09:06:44;;;;;;;105.38;44.30;;;;;;;2.68;99.64;98345.72;8393366;28;20059;-76
2022/11/23 09:10:44;;;;;;;107.85;45.72;;;;;;;2.72;99.73;98348.63;8429737;28;20068;-76
2022/11/23 09:14:46;;;;;;;110.55;42.80;;;;;;;2.74;99.65;98339.28;8428977;28;20036;-76
2022/11/23 09:18:48;;;;;;;117.32;44.95;;;;;;;2.71;99.70;98339.81;8429128;28;20409;-76
2022/11/23 09:22:51;;;;;;;107.70;44.53;;;;;;;2.86;99.24;98326.38;8428804;28;20413;-76
2022/11/23 09:26:52;;;;;;;112.80;46.17;;;;;;;2.99;98.82;98324.97;8428634;28;20056;-76
2022/11/23 09:30:54;;;;;;;105.57;44.20;;;;;;;3.08;98.59;98317.16;8428456;28;20043;-76
2022/11/23 09:34:55;;;;;;;110.53;45.78;;;;;;;3.16;98.35;98319.25;8428531;28;20048;-76
2022/11/23 09:38:57;;;;;;;110.43;46.83;;;;;;;3.16;98.28;98321.91;8389083;28;20462;-76
2022/11/23 09:43:21;;;;;;;106.20;47.70;;;;;;;3.24;98.25;98310.63;8418908;28;20129;-76
2022/11/23 09:47:35;;;;;;;140.63;55.10;;;;;;;3.17;98.15;98320.84;8427652;28;20052;-76
2022/11/23 09:51:37;;;;;;;128.73;50.15;;;;;;;3.23;98.13;98317.03;8428049;28;20552;-76
2022/11/23 09:55:43;;;;;;;144.90;56.88;;;;;;;3.33;97.91;98314.31;8420516;28;20487;-76
2022/11/23 09:59:55;;;;;;;131.13;54.03;;;;;;;3.29;97.59;98313.25;8404903;28;20433;-76
2022/11/23 10:03:56;;;;;;;122.35;53.40;;;;;;;3.32;97.85;98308.16;8427629;28;20517;-76
2022/11/23 10:08:30;;;;;;;157.93;60.03;;;;;;;3.32;97.57;98291.34;8427515;28;20044;-76
2022/11/23 10:12:38;;;;;;;150.57;58.08;;;;;;;3.35;97.71;98290.78;8427561;28;20498;-76
2022/11/23 10:16:40;;;;;;;145.90;54.60;;;;;;;3.44;97.47;98294.41;8414978;28;20048;-76
2022/11/23 10:21:03;;;;;;;135.27;53.20;;;;;;;3.57;97.17;98288.44;8427321;28;20058;-76
2022/11/23 10:25:14;;;;;;;159.23;60.22;;;;;;;3.57;97.24;98288.44;8374292;28;20529;-76
2022/11/23 10:29:32;;;;;;;149.55;60.10;;;;;;;3.62;97.30;98280.38;8426995;28;20047;-76
2022/11/23 10:33:52;;;;;;;110.43;45.70;;;;;;;3.70;97.01;98287.75;8409167;28;20053;-76
2022/11/23 10:38:20;;;;;;;111.13;44.72;;;;;;;3.82;96.03;98280.16;8398319;28;20059;-76
2022/11/23 10:42:35;;;;;;;114.35;43.38;;;;;;;3.85;96.26;98288.69;8422209;28;20549;-76
2022/11/23 10:46:39;;;;;;;103.40;42.97;;;;;;;3.85;96.15;98288.69;8403233;28;20052;-76
2022/11/23 10:50:40;;;;;;;97.88;40.78;;;;;;;3.87;96.13;98281.16;8414674;28;20044;-76
2022/11/23 10:54:53;;;;;;;114.45;46.80;;;;;;;3.81;96.15;98285.75;8426989;28;20048;-77
2022/11/23 10:58:54;;;;;;;128.65;51.45;;;;;;;3.83;96.64;98281.75;8426675;28;20052;-76
2022/11/23 11:02:56;;;;;;;156.43;60.95;;;;;;;3.92;96.32;98283.78;8408302;28;20452;-76
2022/11/23 11:07:19;;;;;;;104.43;41.30;;;;;;;3.96;96.18;98280.28;8426176;28;20067;-76
2022/11/23 11:11:28;;;;;;;114.65;45.47;;;;;;;3.98;96.00;98277.28;8426174;28;20055;-76
2022/11/23 11:15:29;;;;;;;98.75;40.28;;;;;;;4.03;95.96;98280.69;8426317;28;20059;-76
2022/11/23 11:19:32;;;;;;;103.15;42.88;;;;;;;4.09;95.87;98284.09;8426098;28;20409;-76
2022/11/23 11:23:38;;;;;;;99.93;39.42;;;;;;;4.19;95.63;98289.31;8426179;28;20099;-76
2022/11/23 11:27:50;;;;;;;101.13;41.05;;;;;;;4.22;95.44;98288.75;8425709;28;20052;-76
2022/11/23 11:32:05;;;;;;;100.25;41.33;;;;;;;4.31;94.83;98287.03;8425939;28;20090;-76
2022/11/23 11:36:07;;;;;;;110.60;43.33;;;;;;;4.29;94.68;98283.84;8398003;28;20060;-76
2022/11/23 11:40:19;;;;;;;109.85;46.08;;;;;;;4.37;95.01;98301.91;8431899;28;20570;-76
2022/11/23 11:44:23;;;;;;;109.50;46.15;;;;;;;4.36;94.92;98288.84;8413947;28;20071;-76
2022/11/23 11:48:38;;;;;;;124.25;50.25;;;;;;;4.42;94.83;98293.84;8413834;28;20050;-76
2022/11/23 11:52:39;;;;;;;116.05;48.08;;;;;;;4.55;94.42;98279.72;8431915;28;20079;-76
2022/11/23 11:56:43;;;;;;;126.18;50.15;;;;;;;4.60;93.95;98285.00;8431787;28;20042;-76
2022/11/23 12:00:45;;;;;;;127.82;51.53;;;;;;;4.78;93.40;98279.94;8372777;28;20484;-76
2022/11/23 12:04:59;;;;;;;115.90;49.10;;;;;;;4.84;92.92;98271.56;8327226;28;20140;-76
2022/11/23 12:09:08;;;;;;;113.57;47.63;;;;;;;4.92;92.40;98272.75;8294466;28;20049;-76
2022/11/23 12:13:15;;;;;;;113.68;50.72;;;;;;;4.94;92.04;98262.56;8327079;28;20045;-76
2022/11/23 12:17:35;;;;;;;114.18;50.47;;;;;;;5.10;91.64;98271.94;8327256;28;20151;-76
2022/11/23 12:22:00;;;;;;;122.20;50.83;;;;;;;5.30;91.18;98276.16;8326958;28;20054;-76
2022/11/23 12:26:19;;;;;;;124.35;49.03;;;;;;;5.46;90.69;98275.59;8326928;28;20599;-76
2022/11/23 12:30:24;;;;;;;114.38;48.15;;;;;;;5.52;90.65;98279.78;8326665;28;20076;-76
2022/11/23 12:34:48;;;;;;;114.53;47.22;;;;;;;5.69;90.63;98278.41;8335424;28;20044;-76
2022/11/23 12:39:09;;;;;;;116.32;48.28;;;;;;;5.51;90.27;98267.47;8430162;28;20047;-76
2022/11/23 12:43:18;;;;;;;111.18;46.60;;;;;;;5.41;90.52;98273.00;8377844;28;20127;-76
2022/11/23 12:47:26;;;;;;;120.57;49.53;;;;;;;5.31;90.55;98272.38;8371326;28;20047;-76
2022/11/23 12:51:33;;;;;;;117.25;48.20;;;;;;;5.18;90.64;98284.66;8430229;28;20092;-76
2022/11/23 12:55:52;;;;;;;116.80;48.05;;;;;;;5.12;90.58;98275.13;8429776;28;20044;-76
2022/11/23 13:00:19;;;;;;;123.82;51.35;;;;;;;5.01;90.83;98279.06;8429693;28;20561;-76
2022/11/23 13:04:38;;;;;;;135.57;56.33;;;;;;;4.82;91.00;98286.28;8227950;28;20505;-76
2022/11/23 13:08:42;;;;;;;;;;;;;;;4.74;91.62;98289.63;8218271;28;20046;-76
2022/11/23 13:12:57;;;;;;;129.95;55.28;;;;;;;4.66;91.83;98294.56;8260225;28;20400;-76
2022/11/23 13:17:13;;;;;;;127.97;52.65;;;;;;;4.59;91.99;98294.13;8260269;28;20086;-76
2022/11/23 13:21:36;;;;;;;107.30;45.50;;;;;;;4.46;92.06;98294.84;8241897;28;20046;-76
2022/11/23 13:25:37;;;;;;;104.50;45.00;;;;;;;4.37;92.20;98296.56;8259632;28;20575;-76
2022/11/23 13:30:13;;;;;;;111.85;45.10;;;;;;;4.25;92.37;98298.88;8259935;28;20054;-76
2022/11/23 13:34:43;;;;;;;103.78;42.95;;;;;;;4.03;92.64;98296.72;8179318;28;20047;-76
2022/11/23 13:38:45;;;;;;;109.88;43.10;;;;;;;3.92;92.81;98303.25;8201921;28;20391;-76
2022/11/23 13:42:46;;;;;;;107.03;44.40;;;;;;;3.80;93.38;98292.22;8340680;28;20049;-76
2022/11/23 13:47:00;;;;;;;113.18;45.17;;;;;;;3.71;93.46;98300.03;8344463;28;20152;-76
2022/11/23 13:51:01;;;;;;;114.53;45.55;;;;;;;3.60;93.99;98303.88;8344349;28;20049;-75
2022/11/23 13:55:08;;;;;;;120.43;46.20;;;;;;;3.53;93.82;98303.44;8349606;28;20080;-76
2022/11/23 13:59:21;;;;;;;116.10;44.90;;;;;;;3.50;93.82;98303.97;8356184;28;20083;-76
2022/11/23 14:03:54;;;;;;;115.50;44.83;;;;;;;3.52;93.87;98307.19;8353299;28;20051;-76
2022/11/23 14:07:55;;;;;;;112.57;44.45;;;;;;;3.49;93.88;98312.28;8351576;28;20075;-76
2022/11/23 14:11:56;;;;;;;138.18;52.40;;;;;;;3.50;93.98;98303.97;8367610;28;20073;-76
2022/11/23 14:16:00;;;;;;;139.80;50.42;;;;;;;3.42;94.18;98312.63;8427055;28;20135;-76
2022/11/23 14:20:14;;;;;;;138.70;52.95;;;;;;;3.35;94.49;98322.81;8355885;28;20049;-76
2022/11/23 14:24:26;;;;;;;129.20;50.95;;;;;;;3.29;94.60;98323.91;8305988;28;20045;-76
2022/11/23 14:28:56;;;;;;;124.18;48.92;;;;;;;3.23;94.85;98325.03;8339184;28;20053;-76
2022/11/23 14:33:29;;;;;;;121.80;47.00;;;;;;;3.18;95.09;98327.75;8347554;28;20055;-76
2022/11/23 14:37:39;;;;;;;139.93;54.22;;;;;;;3.16;95.14;98329.91;8289834;28;20056;-76
2022/11/23 14:41:41;;;;;;;177.90;67.05;;;;;;;3.10;95.29;98334.50;8289614;28;20136;-76
2022/11/23 14:45:42;;;;;;;120.25;46.83;;;;;;;2.98;95.68;98329.50;8274075;28;20053;-76
2022/11/23 14:49:52;;;;;;;117.53;46.00;;;;;;;2.93;95.95;98334.88;8286866;28;20137;-76
2022/11/23 14:53:56;;;;;;;116.07;45.55;;;;;;;2.90;96.03;98343.44;8290144;28;20054;-75
2022/11/23 14:58:00;;;;;;;126.05;49.83;;;;;;;2.88;96.16;98350.91;8303216;28;20049;-77
2022/11/23 15:02:04;;;;;;;119.25;46.92;;;;;;;2.78;96.44;98351.00;8322642;28;20446;-76
2022/11/23 15:06:14;;;;;;;122.05;46.90;;;;;;;2.73;96.53;98343.03;8322190;28;20408;-76
2022/11/23 15:10:37;;;;;;;120.47;44.70;;;;;;;2.67;96.80;98338.78;8324325;28;20075;-76
2022/11/23 15:14:42;;;;;;;118.40;45.60;;;;;;;2.64;96.80;98352.69;8398100;28;20047;-76
2022/11/23 15:18:44;;;;;;;118.60;43.97;;;;;;;2.61;97.02;98345.22;8396911;28;20505;-76
2022/11/23 15:22:45;;;;;;;130.23;48.00;;;;;;;2.58;97.16;98340.44;8432719;28;20079;-76
2022/11/23 15:26:46;;;;;;;121.93;46.28;;;;;;;2.56;97.19;98342.56;8432542;28;20044;-76
2022/11/23 15:30:47;;;;;;;122.32;46.92;;;;;;;2.51;96.96;98345.28;8413755;28;20086;-76
2022/11/23 15:34:49;;;;;;;120.85;47.20;;;;;;;2.48;97.38;98345.84;8430014;28;20048;-76
2022/11/23 15:38:52;;;;;;;125.65;48.63;;;;;;;2.43;97.44;98348.53;8413068;28;20599;-76
2022/11/23 15:42:53;;;;;;;128.40;47.88;;;;;;;2.40;97.47;98338.41;8414147;28;20052;-76
2022/11/23 15:46:59;;;;;;;122.95;46.20;;;;;;;2.36;97.48;98337.34;8360072;28;20049;-76
2022/11/23 15:51:02;;;;;;;126.40;48.03;;;;;;;2.33;97.54;98343.22;8359280;28;20041;-76
2022/11/23 15:55:07;;;;;;;135.27;49.33;;;;;;;2.24;97.77;98339.53;8312351;28;20053;-76
2022/11/23 15:59:29;;;;;;;139.23;48.85;;;;;;;2.17;98.04;98344.38;8360640;28;20057;-76
2022/11/23 16:03:55;;;;;;;124.00;44.90;;;;;;;2.05;98.25;98342.81;8359902;28;20705;-76
2022/11/23 16:07:59;;;;;;;117.60;45.03;;;;;;;2.02;98.32;98338.00;8201349;28;20048;-76
2022/11/23 16:12:19;;;;;;;125.03;46.55;;;;;;;1.96;97.99;98333.78;8189858;28;20039;-76
2022/11/23 16:16:24;;;;;;;129.85;47.70;;;;;;;1.90;98.13;98334.88;8185200;28;20294;-76
2022/11/23 16:20:25;;;;;;;141.95;50.80;;;;;;;1.74;98.67;98328.00;8251403;28;20047;-76
2022/11/23 16:24:27;;;;;;;137.30;49.78;;;;;;;1.70;98.34;98335.72;8260450;28;20050;-76
2022/11/23 16:28:36;;;;;;;168.90;56.30;;;;;;;1.58;98.72;98331.75;8261620;28;20124;-76
2022/11/23 16:32:39;;;;;;;124.05;45.53;;;;;;;1.44;98.60;98346.66;8259905;28;20054;-75
2022/11/23 16:36:40;;;;;;;115.35;43.13;;;;;;;1.33;98.90;98345.06;8261881;28;20066;-75
2022/11/23 16:40:43;;;;;;;119.55;42.28;;;;;;;1.19;98.91;98345.63;8262128;28;20061;-75
2022/11/23 16:44:44;;;;;;;118.20;41.67;;;;;;;1.05;99.38;98343.75;8357743;28;20048;-76
2022/11/23 16:48:45;;;;;;;106.43;40.95;;;;;;;0.97;99.67;98342.41;8417298;28;20127;-76
2022/11/23 16:52:46;;;;;;;114.05;41.47;;;;;;;0.90;99.27;98341.09;8416373;28;20044;-75
2022/11/23 16:56:47;;;;;;;120.55;43.42;;;;;;;0.75;99.23;98334.69;8377601;28;20095;-76
2022/11/23 17:00:49;;;;;;;120.03;42.85;;;;;;;0.68;99.28;98336.00;8416633;28;20252;-77
2022/11/23 17:04:50;;;;;;;124.18;44.80;;;;;;;0.58;99.44;98333.34;8429237;28;20463;-76
2022/11/23 17:08:54;;;;;;;110.78;43.28;;;;;;;0.51;99.07;98327.47;8428570;28;20074;-77
2022/11/23 17:12:58;;;;;;;116.18;42.65;;;;;;;0.48;99.15;98322.69;8429067;28;20052;-76
2022/11/23 17:17:00;;;;;;;113.47;41.00;;;;;;;0.43;99.21;98332.22;8410721;28;20123;-76
2022/11/23 17:21:02;;;;;;;116.80;43.00;;;;;;;0.36;98.82;98337.00;8428511;28;20169;-76
2022/11/23 17:25:03;;;;;;;111.53;42.10;;;;;;;0.26;98.61;98334.31;8428357;28;20056;-76
2022/11/23 17:29:09;;;;;;;154.07;48.60;;;;;;;0.18;98.59;98334.81;8427115;28;20069;-75
2022/11/23 17:33:10;;;;;;;144.88;52.10;;;;;;;0.08;98.90;98340.06;8400564;28;20054;-76
2022/11/23 17:37:16;;;;;;;139.00;51.58;;;;;;;0.05;98.55;98340.59;8424996;28;20371;-75
2022/11/23 17:41:17;;;;;;;141.82;52.40;;;;;;;-0.02;98.35;98340.03;8393625;28;20143;-76
2022/11/23 17:45:20;;;;;;;144.60;53.08;;;;;;;-0.05;98.62;98345.84;8393454;28;20040;-76
2022/11/23 17:49:26;;;;;;;158.68;56.15;;;;;;;-0.10;98.45;98348.47;8394370;28;20124;-75
2022/11/23 17:53:28;;;;;;;167.18;55.42;;;;;;;-0.14;98.69;98347.41;8390951;28;20053;-75
2022/11/23 17:57:29;;;;;;;155.70;54.03;;;;;;;-0.22;98.42;98355.84;8384349;28;20064;-76
2022/11/23 18:01:30;;;;;;;162.77;54.05;;;;;;;-0.25;98.36;98356.34;8393443;28;20190;-75
2022/11/23 18:05:31;;;;;;;150.00;52.97;;;;;;;-0.28;98.16;98362.19;8393761;28;20131;-75
2022/11/23 18:09:33;;;;;;;139.10;49.70;;;;;;;-0.32;98.37;98361.09;8393767;28;20141;-75
2022/11/23 18:13:34;;;;;;;151.50;52.67;;;;;;;-0.35;98.08;98351.00;8394128;28;20052;-75
2022/11/23 18:17:35;;;;;;;153.48;53.33;;;;;;;-0.38;98.53;98356.81;8393332;28;20445;-76
2022/11/23 18:21:36;;;;;;;140.48;50.95;;;;;;;-0.38;98.17;98362.13;8392413;28;20099;-76
2022/11/23 18:25:38;;;;;;;142.07;50.90;;;;;;;-0.40;98.41;98369.53;8386689;28;20139;-76
2022/11/23 18:29:39;;;;;;;139.82;49.67;;;;;;;-0.43;98.29;98371.66;8390205;28;20586;-75
2022/11/23 18:33:40;;;;;;;147.90;49.92;;;;;;;-0.40;97.83;98364.22;8391560;28;20048;-75
2022/11/23 18:37:41;;;;;;;141.93;50.85;;;;;;;-0.43;97.88;98370.84;8393489;28;20572;-75
2022/11/23 18:41:42;;;;;;;147.45;52.80;;;;;;;-0.39;98.05;98371.13;8419407;28;20068;-75